Lake Metigoshe, North Dakota
Current Conditions -  °F | °C
As of 6:35 PM on Thursday 27 Nov 2014 (Local Time) from KRUG Reporting Station
Light Snow Light Snow  
Wind Chill: -12°   Ceiling: 200
Heat Index:   Visibility: 2.5mi
Dew Point:   Wind: 18mph
Humidity: 85%   Direction: 120°ESE
Pressure: 30.04"   Gusts: NA
Location:  48.8385°N, 100.496°W
Report Text: KRUG 280035Z AUTO 12016KT 2 1/2SM -SN BKN002 OVC011 M14/M16 A3004 RMK AO2
Loading
Personal Weather Stations






























Interactive Weather Map New forecast layout! Learn more

10-Day Weather Forecast

Advertisements
Track Severe Weather on mobile